Decoded Metar for KSTP (ST. PAUL in MN, USA) (IATA:STP) | Meteo·Mobile Aviation Weather
aviador You're here:

KSTP Decoded Metar

ST. PAUL in MN, USA
Report Time2020-02-22 21:53:00
UTC Time2020-02-22 22:59:07
Flight Rules vfr VFR
Wind150° at 07 kt
W.Decomp.*RWY 14: 6.9 kt HW 0.9 kt RCW
RWY 13: 6.7 kt HW 2.0 kt RCW
RWY 09: 3.8 kt HW 5.9 kt RCW
Visibility9999 m
Phenomena:N/A
Clouds:N/A
Expected CloudBase > 2,400 ft AGL from Temp-Dew spread
CeilingNone
Temp04°C (ISA -10)
Dew Point-2°C (65% RH)
AAT-0.8°C
QNH1013 hPa
Density Alt-364 ft
Elevation719 ft
Report Wrong Elevation
Raw Report
KSTP 222153Z 15007KT 10SM CLR 04/M02 A2990 RMK AO2 SLP132
T00441017=

Extra information for KSTP:More info

Metar Taf Metar & Taf Last 4 Metars F.Rules Stats Wind Profile Meteogram Temp Stats Airport Information Weather charts Add Link Nearby VenuesMetar ALERT Operation Metar Decoded Social comments

AIRNAV info for KSTP